Time,TemperatureF,DewpointF,PressureIn,WindDirection,WindDirectionDegrees,WindSpeedMPH,WindSpeedGustMPH,Humidity,HourlyPrecipIn,Conditions,Clouds,dailyrainin,SolarRadiationWatts/m^2,SoftwareType,DateUTC
2013-07-15 00:01:00,79.0,71.0,-100.00,East,81,10.0,19.0,76,0.00,,,0.03,0.000000,,2013-07-15 04:01:00,
2013-07-15 00:11:00,79.0,71.0,-100.00,East,81,10.0,19.0,76,0.00,,,0.03,0.000000,,2013-07-15 04:11:00,
2013-07-15 00:22:00,79.0,71.0,-100.00,East,81,10.0,19.0,76,0.00,,,0.03,0.000000,,2013-07-15 04:22:00,
2013-07-15 00:32:00,79.0,71.0,-100.00,East,81,10.0,19.0,76,0.00,,,0.03,0.000000,,2013-07-15 04:32:00,
2013-07-15 01:02:00,79.0,72.0,-100.00,ENE,78,9.0,19.0,78,0.00,,,0.03,0.000000,,2013-07-15 05:02:00,
2013-07-15 01:12:00,79.0,72.0,-100.00,ENE,78,9.0,19.0,78,0.00,,,0.03,0.000000,,2013-07-15 05:12:00,
2013-07-15 01:22:00,79.0,72.0,-100.00,ENE,78,9.0,19.0,78,0.00,,,0.03,0.000000,,2013-07-15 05:22:00,
2013-07-15 01:32:00,79.0,72.0,-100.00,ENE,78,9.0,19.0,78,0.00,,,0.03,0.000000,,2013-07-15 05:32:00,
2013-07-15 02:02:00,80.0,70.0,-100.00,East,84,8.0,17.0,72,0.00,,,0.03,0.000000,,2013-07-15 06:02:00,
2013-07-15 02:12:00,80.0,70.0,-100.00,East,84,8.0,17.0,72,0.00,,,0.03,0.000000,,2013-07-15 06:12:00,
2013-07-15 02:22:00,80.0,70.0,-100.00,East,84,8.0,17.0,72,0.00,,,0.03,0.000000,,2013-07-15 06:22:00,
2013-07-15 02:32:00,80.0,70.0,-100.00,East,84,8.0,17.0,72,0.00,,,0.03,0.000000,,2013-07-15 06:32:00,
2013-07-15 03:01:00,78.0,69.0,-100.00,ESE,103,7.0,21.0,74,0.00,,,0.03,0.000000,,2013-07-15 07:01:00,
2013-07-15 03:11:00,78.0,69.0,-100.00,ESE,103,7.0,21.0,74,0.00,,,0.03,0.000000,,2013-07-15 07:11:00,
2013-07-15 03:22:00,78.0,69.0,-100.00,ESE,103,7.0,21.0,74,0.00,,,0.03,0.000000,,2013-07-15 07:22:00,
2013-07-15 03:33:00,78.0,69.0,-100.00,ESE,103,7.0,21.0,74,0.00,,,0.03,0.000000,,2013-07-15 07:33:00,
2013-07-15 04:02:00,79.0,70.0,-100.00,East,90,8.0,15.0,74,0.00,,,0.02,0.000000,,2013-07-15 08:02:00,
2013-07-15 04:12:00,79.0,70.0,-100.00,East,90,8.0,15.0,74,0.00,,,0.02,0.000000,,2013-07-15 08:12:00,
2013-07-15 04:22:00,79.0,70.0,-100.00,East,90,8.0,15.0,74,0.00,,,0.02,0.000000,,2013-07-15 08:22:00,
2013-07-15 04:32:00,79.0,70.0,-100.00,East,90,8.0,15.0,74,0.00,,,0.02,0.000000,,2013-07-15 08:32:00,
2013-07-15 05:02:00,78.0,72.0,-100.00,East,79,6.0,13.0,81,0.00,,,0.02,0.000000,,2013-07-15 09:02:00,
2013-07-15 05:12:00,78.0,72.0,-100.00,East,79,6.0,13.0,81,0.00,,,0.02,0.000000,,2013-07-15 09:12:00,
2013-07-15 05:22:00,78.0,72.0,-100.00,East,79,6.0,13.0,81,0.00,,,0.02,0.000000,,2013-07-15 09:22:00,
2013-07-15 05:32:00,78.0,72.0,-100.00,East,79,6.0,13.0,81,0.00,,,0.02,0.000000,,2013-07-15 09:32:00,
2013-07-15 06:02:00,78.0,71.0,-100.00,ENE,69,5.0,16.0,78,0.00,,,0.02,0.000000,,2013-07-15 10:02:00,
2013-07-15 06:11:00,78.0,71.0,-100.00,ENE,69,5.0,16.0,78,0.00,,,0.02,0.000000,,2013-07-15 10:11:00,
2013-07-15 06:22:00,78.0,71.0,-100.00,ENE,69,5.0,16.0,78,0.00,,,0.02,0.000000,,2013-07-15 10:22:00,
2013-07-15 06:32:00,78.0,71.0,-100.00,ENE,69,5.0,16.0,78,0.00,,,0.02,0.000000,,2013-07-15 10:32:00,
2013-07-15 07:02:00,79.0,72.0,-100.00,ENE,77,6.0,11.0,80,0.00,,,0.02,0.000000,,2013-07-15 11:02:00,
2013-07-15 07:11:00,79.0,72.0,-100.00,ENE,77,6.0,11.0,80,0.00,,,0.02,0.000000,,2013-07-15 11:11:00,
2013-07-15 07:22:00,79.0,72.0,-100.00,ENE,77,6.0,11.0,80,0.00,,,0.02,0.000000,,2013-07-15 11:22:00,
2013-07-15 07:32:00,79.0,72.0,-100.00,ENE,77,6.0,11.0,80,0.00,,,0.02,0.000000,,2013-07-15 11:32:00,
2013-07-15 08:01:00,79.0,71.0,-100.00,ENE,61,6.0,12.0,77,0.00,,,0.02,14.000000,,2013-07-15 12:01:00,
2013-07-15 08:11:00,79.0,71.0,-100.00,ENE,61,6.0,12.0,77,0.00,,,0.02,14.000000,,2013-07-15 12:11:00,
2013-07-15 08:22:00,79.0,71.0,-100.00,ENE,61,6.0,12.0,77,0.00,,,0.02,14.000000,,2013-07-15 12:22:00,
2013-07-15 08:32:00,79.0,71.0,-100.00,ENE,61,6.0,12.0,77,0.00,,,0.02,14.000000,,2013-07-15 12:32:00,
2013-07-15 09:02:00,80.0,73.0,-100.00,ENE,65,7.0,13.0,78,0.00,,,0.02,62.000000,,2013-07-15 13:02:00,
2013-07-15 09:11:00,80.0,73.0,-100.00,ENE,65,7.0,13.0,78,0.00,,,0.02,62.000000,,2013-07-15 13:11:00,
2013-07-15 09:22:00,80.0,73.0,-100.00,ENE,65,7.0,13.0,78,0.00,,,0.02,62.000000,,2013-07-15 13:22:00,
2013-07-15 09:33:00,80.0,73.0,-100.00,ENE,65,7.0,13.0,78,0.00,,,0.02,62.000000,,2013-07-15 13:33:00,
2013-07-15 10:11:00,80.0,71.0,-100.00,East,96,6.0,13.0,75,0.00,,,0.02,127.000000,,2013-07-15 14:11:00,
2013-07-15 10:22:00,80.0,71.0,-100.00,East,96,6.0,13.0,75,0.00,,,0.02,127.000000,,2013-07-15 14:22:00,
2013-07-15 10:33:00,80.0,71.0,-100.00,East,96,6.0,13.0,75,0.00,,,0.02,127.000000,,2013-07-15 14:33:00,
2013-07-15 10:38:00,83.0,69.0,-100.00,ESE,112,4.0,10.0,63,0.00,,,0.02,252.000000,,2013-07-15 14:38:00,
2013-07-15 11:03:00,83.0,69.0,-100.00,ESE,112,4.0,10.0,63,0.00,,,0.02,252.000000,,2013-07-15 15:03:00,
2013-07-15 11:28:00,83.0,69.0,-100.00,ESE,112,4.0,10.0,63,0.00,,,0.02,252.000000,,2013-07-15 15:28:00,
2013-07-15 12:15:00,83.0,71.0,-100.00,East,88,9.0,17.0,68,0.00,,,0.00,541.000000,,2013-07-15 16:15:00,
2013-07-15 12:24:00,83.0,71.0,-100.00,East,88,9.0,17.0,68,0.00,,,0.00,541.000000,,2013-07-15 16:24:00,
2013-07-15 12:33:00,83.0,71.0,-100.00,East,88,9.0,17.0,68,0.00,,,0.00,541.000000,,2013-07-15 16:33:00,
2013-07-15 13:07:00,83.0,73.0,-100.00,East,86,9.0,20.0,72,0.00,,,0.00,470.000000,,2013-07-15 17:07:00,
2013-07-15 13:13:00,83.0,73.0,-100.00,East,86,9.0,20.0,72,0.00,,,0.00,470.000000,,2013-07-15 17:13:00,
2013-07-15 13:23:00,83.0,73.0,-100.00,East,86,9.0,20.0,72,0.00,,,0.00,470.000000,,2013-07-15 17:23:00,
2013-07-15 13:36:00,83.0,73.0,-100.00,East,86,9.0,20.0,72,0.00,,,0.00,470.000000,,2013-07-15 17:36:00,
2013-07-15 13:38:00,83.0,73.0,-100.00,East,92,8.0,17.0,72,0.00,,,0.00,470.000000,,2013-07-15 17:38:00,
2013-07-15 14:17:00,83.0,73.0,-100.00,East,92,8.0,17.0,72,0.00,,,0.00,470.000000,,2013-07-15 18:17:00,
2013-07-15 14:28:00,83.0,73.0,-100.00,East,92,8.0,17.0,72,0.00,,,0.00,470.000000,,2013-07-15 18:28:00,
2013-07-15 15:05:00,85.0,72.0,-100.00,ESE,113,6.0,15.0,65,0.00,,,0.00,432.000000,,2013-07-15 19:05:00,
2013-07-15 15:12:00,85.0,72.0,-100.00,ESE,113,6.0,15.0,65,0.00,,,0.00,432.000000,,2013-07-15 19:12:00,
2013-07-15 15:24:00,85.0,72.0,-100.00,ESE,113,6.0,15.0,65,0.00,,,0.00,432.000000,,2013-07-15 19:24:00,
2013-07-15 15:36:00,85.0,72.0,-100.00,ESE,113,6.0,15.0,65,0.00,,,0.00,432.000000,,2013-07-15 19:36:00,
2013-07-15 16:28:00,86.0,72.0,-100.00,East,98,6.0,13.0,64,0.00,,,0.00,384.000000,,2013-07-15 20:28:00,
2013-07-15 16:37:00,86.0,72.0,-100.00,East,98,6.0,13.0,64,0.00,,,0.00,384.000000,,2013-07-15 20:37:00,
2013-07-15 16:38:00,85.0,71.0,-100.00,ESE,115,5.0,14.0,63,0.00,,,0.00,515.000000,,2013-07-15 20:38:00,
2013-07-15 17:12:00,85.0,71.0,-100.00,ESE,115,5.0,14.0,63,0.00,,,0.00,515.000000,,2013-07-15 21:12:00,
2013-07-15 17:23:00,85.0,71.0,-100.00,ESE,115,5.0,14.0,63,0.00,,,0.00,515.000000,,2013-07-15 21:23:00,
2013-07-15 18:03:00,83.0,70.0,-100.00,East,93,7.0,12.0,64,0.00,,,0.00,209.000000,,2013-07-15 22:03:00,
2013-07-15 18:18:00,83.0,70.0,-100.00,East,93,7.0,12.0,64,0.00,,,0.00,209.000000,,2013-07-15 22:18:00,
2013-07-15 18:34:00,83.0,70.0,-100.00,East,93,7.0,12.0,64,0.00,,,0.00,209.000000,,2013-07-15 22:34:00,
2013-07-15 18:38:00,83.0,72.0,-100.00,East,84,8.0,13.0,69,0.00,,,0.00,165.000000,,2013-07-15 22:38:00,
2013-07-15 19:06:00,83.0,72.0,-100.00,East,84,8.0,13.0,69,0.00,,,0.00,165.000000,,2013-07-15 23:06:00,
2013-07-15 19:13:00,83.0,72.0,-100.00,East,84,8.0,13.0,69,0.00,,,0.00,165.000000,,2013-07-15 23:13:00,
2013-07-15 19:29:00,83.0,72.0,-100.00,East,84,8.0,13.0,69,0.00,,,0.00,165.000000,,2013-07-15 23:29:00,
2013-07-15 20:03:00,83.0,73.0,-100.00,East,84,7.0,14.0,72,0.00,,,0.00,207.000000,,2013-07-16 00:03:00,
2013-07-15 20:16:00,83.0,73.0,-100.00,East,84,7.0,14.0,72,0.00,,,0.00,207.000000,,2013-07-16 00:16:00,
2013-07-15 20:27:00,83.0,73.0,-100.00,East,84,7.0,14.0,72,0.00,,,0.00,207.000000,,2013-07-16 00:27:00,
2013-07-15 20:33:00,83.0,73.0,-100.00,East,84,7.0,14.0,72,0.00,,,0.00,207.000000,,2013-07-16 00:33:00,
2013-07-15 21:09:00,81.0,72.0,-100.00,East,89,5.0,12.0,75,0.00,,,0.00,21.000000,,2013-07-16 01:09:00,
2013-07-15 21:16:00,81.0,72.0,-100.00,East,89,5.0,12.0,75,0.00,,,0.00,21.000000,,2013-07-16 01:16:00,
2013-07-15 21:27:00,81.0,72.0,-100.00,East,89,5.0,12.0,75,0.00,,,0.00,21.000000,,2013-07-16 01:27:00,
2013-07-15 21:37:00,81.0,72.0,-100.00,East,89,5.0,12.0,75,0.00,,,0.00,21.000000,,2013-07-16 01:37:00,
2013-07-15 22:11:00,81.0,73.0,-100.00,East,82,8.0,13.0,78,0.00,,,0.00,0.000000,,2013-07-16 02:11:00,
2013-07-15 22:35:00,81.0,73.0,-100.00,East,82,8.0,13.0,78,0.00,,,0.00,0.000000,,2013-07-16 02:35:00,
2013-07-15 22:38:00,82.0,71.0,-100.00,East,80,8.0,16.0,69,0.00,,,0.00,0.000000,,2013-07-16 02:38:00,
2013-07-15 23:09:00,82.0,71.0,-100.00,East,80,8.0,16.0,69,0.00,,,0.00,0.000000,,2013-07-16 03:09:00,
2013-07-15 23:17:00,82.0,71.0,-100.00,East,80,8.0,16.0,69,0.00,,,0.00,0.000000,,2013-07-16 03:17:00,
2013-07-15 23:29:00,82.0,71.0,-100.00,East,80,8.0,16.0,69,0.00,,,0.00,0.000000,,2013-07-16 03:29:00,